Time;durP1;ratioP1;P1;durP2;ratioP2;P2;SDS_P1;SDS_P2;PMS_P1;PMS_P2;Temp;Humidity;BMP_temperature;BMP_pressure;BME280_temperature;BME280_humidity;BME280_pressure;Samples;Min_cycle;Max_cycle;Signal;HPM_P1;HPM_P2
2023/07/31 00:01:25;;;;;;;9.77;2.33;;;;;;;26.81;40.94;98749.03;5011016;28;20022;-76
2023/07/31 00:03:50;;;;;;;4.97;2.28;;;;;;;26.83;40.93;98755.88;5010952;28;20578;-75
2023/07/31 00:06:16;;;;;;;2.60;1.95;;;;;;;26.95;40.94;98765.75;5011090;28;20456;-76
2023/07/31 00:08:41;;;;;;;4.97;2.17;;;;;;;26.91;41.11;98771.63;5010892;28;20029;-76
2023/07/31 00:11:06;;;;;;;2.70;1.90;;;;;;;26.92;40.90;98766.69;5010992;28;20056;-76
2023/07/31 00:13:32;;;;;;;4.78;1.70;;;;;;;26.88;41.38;98763.94;5008179;28;20036;-75
2023/07/31 00:15:57;;;;;;;6.13;2.30;;;;;;;26.84;41.35;98757.50;5009816;28;20025;-76
2023/07/31 00:18:23;;;;;;;5.03;2.10;;;;;;;26.91;41.26;98765.09;5009662;28;20104;-76
2023/07/31 00:20:48;;;;;;;6.78;2.03;;;;;;;26.80;41.59;98776.13;5007860;28;20026;-76
2023/07/31 00:23:14;;;;;;;4.13;2.55;;;;;;;26.78;41.82;98765.88;5008816;28;20456;-75
2023/07/31 00:25:39;;;;;;;8.52;2.50;;;;;;;26.62;42.00;98751.72;4994944;28;20054;-76
2023/07/31 00:28:05;;;;;;;3.85;2.30;;;;;;;26.59;41.98;98764.13;4994794;28;20018;-76
2023/07/31 00:30:30;;;;;;;4.88;2.30;;;;;;;26.38;42.50;98763.59;4996000;28;20051;-76
2023/07/31 00:32:56;;;;;;;4.15;2.38;;;;;;;26.43;42.54;98774.50;5013014;28;20037;-76
2023/07/31 00:35:21;;;;;;;4.63;1.92;;;;;;;26.44;41.68;98770.34;5013668;28;20398;-76
2023/07/31 00:37:47;;;;;;;7.60;2.70;;;;;;;26.46;41.88;98767.00;5011767;28;20022;-75
2023/07/31 00:40:13;;;;;;;6.63;2.50;;;;;;;26.46;41.70;98764.13;5013116;28;20025;-76
2023/07/31 00:42:39;;;;;;;4.40;2.63;;;;;;;26.46;41.74;98767.81;5014026;28;20033;-76
2023/07/31 00:45:05;;;;;;;2.35;1.98;;;;;;;26.35;41.79;98773.13;5012106;28;20488;-76
2023/07/31 00:47:30;;;;;;;3.88;2.25;;;;;;;26.25;41.51;98768.53;5011729;28;20022;-76
2023/07/31 00:49:56;;;;;;;3.92;2.47;;;;;;;26.18;41.29;98784.69;5012562;28;20022;-76
2023/07/31 00:52:21;;;;;;;2.42;1.83;;;;;;;26.15;41.54;98788.47;5008663;28;20019;-76
2023/07/31 00:54:48;;;;;;;10.57;2.10;;;;;;;26.09;41.72;98790.31;4998722;28;20489;-76
2023/07/31 00:57:15;;;;;;;2.40;2.05;;;;;;;25.88;42.01;98775.41;5011465;28;20574;-76
2023/07/31 00:59:40;;;;;;;5.97;2.15;;;;;;;25.87;41.98;98787.31;5012064;28;20120;-76
2023/07/31 01:02:06;;;;;;;4.10;2.30;;;;;;;25.95;42.13;98790.75;5013047;28;20109;-76
2023/07/31 01:04:32;;;;;;;5.30;2.20;;;;;;;25.74;42.21;98790.16;5000707;28;20031;-76
2023/07/31 01:07:07;;;;;;;2.72;2.03;;;;;;;25.65;42.21;98791.63;4994423;28;20030;-75
2023/07/31 01:09:52;;;;;;;6.32;2.20;;;;;;;25.70;42.31;98798.03;4993996;28;20045;-76
2023/07/31 01:12:20;;;;;;;8.88;2.53;;;;;;;25.84;41.60;98791.09;5009851;28;20433;-76
2023/07/31 01:15:06;;;;;;;5.28;2.63;;;;;;;26.06;41.27;98782.59;4998947;28;20073;-76
2023/07/31 01:17:32;;;;;;;5.00;2.25;;;;;;;26.13;41.37;98788.13;4995519;28;20029;-76
2023/07/31 01:20:03;;;;;;;8.77;2.13;;;;;;;25.72;42.07;98796.34;5012664;28;20040;-76
2023/07/31 01:22:46;;;;;;;12.30;2.67;;;;;;;25.34;43.23;98792.13;5012928;28;20037;-76
2023/07/31 01:25:44;;;;;;;6.63;2.20;;;;;;;25.50;42.90;98791.25;5011247;28;20090;-76
2023/07/31 01:28:14;;;;;;;5.00;2.63;;;;;;;25.35;43.30;98782.28;4997943;28;20528;-76
2023/07/31 01:30:47;;;;;;;3.05;2.30;;;;;;;24.05;47.59;98797.09;5012116;28;20455;-75
2023/07/31 01:33:15;;;;;;;3.28;2.20;;;;;;;23.49;48.50;98781.56;4992932;28;20026;-76
2023/07/31 01:35:44;;;;;;;3.10;2.47;;;;;;;23.35;47.98;98788.38;4994580;28;20056;-75
2023/07/31 01:38:10;;;;;;;9.43;3.07;;;;;;;23.18;48.54;98776.88;5011483;28;20041;-75
2023/07/31 01:40:35;;;;;;;9.75;2.80;;;;;;;23.08;48.96;98784.41;5012824;28;20424;-75
2023/07/31 01:43:01;;;;;;;3.50;2.40;;;;;;;23.27;48.48;98773.44;4999957;28;20041;-75
2023/07/31 01:45:26;;;;;;;5.95;3.28;;;;;;;23.72;48.49;98779.84;4997524;28;20028;-75
2023/07/31 01:47:52;;;;;;;7.72;3.30;;;;;;;23.76;50.23;98784.22;5012607;28;20034;-75
2023/07/31 01:50:17;;;;;;;4.78;3.15;;;;;;;23.80;50.96;98784.16;5011547;28;20041;-75
2023/07/31 01:52:43;;;;;;;5.97;3.70;;;;;;;23.66;53.74;98771.00;5010784;28;20528;-75
2023/07/31 01:55:08;;;;;;;5.80;4.13;;;;;;;23.74;55.71;98783.06;5002291;28;20497;-76
2023/07/31 01:57:36;;;;;;;7.25;4.40;;;;;;;23.95;55.50;98784.63;5001239;28;20456;-75
2023/07/31 02:00:05;;;;;;;6.65;3.90;;;;;;;24.12;56.06;98782.63;4992966;28;20041;-75
2023/07/31 02:02:30;;;;;;;6.47;3.97;;;;;;;24.20;57.43;98781.19;5003736;28;20036;-75
2023/07/31 02:04:56;;;;;;;12.63;4.30;;;;;;;23.83;60.09;98777.56;4993680;28;20030;-75
2023/07/31 02:07:21;;;;;;;10.02;6.20;;;;;;;23.65;61.81;98781.63;5008533;28;20025;-75
2023/07/31 02:09:47;;;;;;;9.32;5.18;;;;;;;23.63;62.23;98778.41;5011168;28;20021;-75
2023/07/31 02:12:14;;;;;;;6.47;4.65;;;;;;;23.46;63.54;98773.91;5003281;28;20402;-75
2023/07/31 02:14:40;;;;;;;7.88;5.10;;;;;;;23.42;64.06;98776.81;5008399;28;20029;-75
2023/07/31 02:17:06;;;;;;;5.28;4.45;;;;;;;23.38;64.35;98771.19;5011212;28;20385;-75
2023/07/31 02:19:31;;;;;;;6.97;4.50;;;;;;;23.36;64.76;98776.53;5010560;28;20030;-75
2023/07/31 02:21:56;;;;;;;11.88;5.55;;;;;;;23.41;64.68;98773.19;5011979;28;20088;-75
2023/07/31 02:24:22;;;;;;;6.50;4.47;;;;;;;23.30;65.25;98777.47;4998601;28;20536;-75
2023/07/31 02:26:47;;;;;;;5.55;4.57;;;;;;;23.24;65.20;98757.19;5002322;28;20346;-75
2023/07/31 02:29:13;;;;;;;8.10;5.47;;;;;;;23.49;64.83;98767.28;5011293;28;20407;-75
2023/07/31 02:31:38;;;;;;;12.45;5.72;;;;;;;23.49;67.27;98761.59;5011442;28;20017;-75
2023/07/31 02:34:04;;;;;;;10.88;4.93;;;;;;;23.32;70.83;98772.94;5010281;28;20049;-75
2023/07/31 02:36:29;;;;;;;9.98;4.95;;;;;;;23.44;73.05;98759.25;5011861;28;20025;-75
2023/07/31 02:38:55;;;;;;;6.47;5.60;;;;;;;23.23;73.23;98778.41;5012284;28;20018;-76
2023/07/31 02:41:20;;;;;;;14.50;6.78;;;;;;;22.54;77.22;98769.09;5013940;28;20028;-76
2023/07/31 02:43:46;;;;;;;9.50;6.22;;;;;;;22.23;81.93;98772.06;5001553;28;20024;-76
2023/07/31 02:46:11;;;;;;;12.02;6.85;;;;;;;22.13;83.09;98768.13;5008772;28;20027;-75
2023/07/31 02:48:37;;;;;;;7.03;6.32;;;;;;;21.96;86.33;98775.72;5012513;28;20026;-76
2023/07/31 02:51:02;;;;;;;12.15;6.95;;;;;;;22.14;87.06;98766.09;5003098;28;20491;-75
2023/07/31 02:53:28;;;;;;;10.20;6.70;;;;;;;22.46;85.84;98761.91;4993603;28;20092;-75
2023/07/31 02:55:53;;;;;;;23.98;7.78;;;;;;;22.46;85.71;98767.59;5005722;28;20033;-75
2023/07/31 02:58:19;;;;;;;8.15;6.28;;;;;;;22.63;85.29;98756.34;5010657;28;20461;-77
2023/07/31 03:00:44;;;;;;;14.00;7.30;;;;;;;22.53;86.95;98741.84;5007721;28;20026;-76
2023/07/31 03:03:10;;;;;;;11.75;6.85;;;;;;;22.67;85.52;98754.22;5005070;28;20026;-78
2023/07/31 03:05:36;;;;;;;10.32;6.65;;;;;;;22.94;82.98;98751.25;5004764;28;20068;-76
2023/07/31 03:08:02;;;;;;;6.88;6.15;;;;;;;22.96;82.24;98739.44;5004362;28;20042;-75
2023/07/31 03:10:27;;;;;;;7.93;6.00;;;;;;;23.22;81.41;98745.41;5003047;28;20084;-76
2023/07/31 03:12:53;;;;;;;8.57;6.82;;;;;;;22.43;85.55;98748.50;5010861;28;20030;-75
2023/07/31 03:15:18;;;;;;;9.43;6.05;;;;;;;22.42;87.01;98755.44;5011549;28;20021;-76
2023/07/31 03:17:44;;;;;;;8.32;6.90;;;;;;;22.36;86.52;98762.88;5009954;28;20073;-76
2023/07/31 03:20:10;;;;;;;10.75;6.53;;;;;;;22.77;83.94;98770.31;5010589;28;20038;-75
2023/07/31 03:22:35;;;;;;;8.23;5.07;;;;;;;23.05;82.73;98773.88;5005288;28;20061;-75
2023/07/31 03:25:02;;;;;;;17.40;7.20;;;;;;;23.30;81.86;98780.34;5004497;28;20026;-75
2023/07/31 03:27:28;;;;;;;7.90;6.57;;;;;;;23.40;81.54;98774.38;5007929;28;20481;-77
2023/07/31 03:29:53;;;;;;;8.77;5.85;;;;;;;23.29;81.12;98779.53;5011447;28;20026;-77
2023/07/31 03:32:19;;;;;;;6.88;6.00;;;;;;;23.32;81.26;98777.84;5008070;28;20028;-78
2023/07/31 03:34:44;;;;;;;8.18;5.40;;;;;;;23.05;83.09;98795.88;4992463;28;20197;-78
2023/07/31 03:37:09;;;;;;;7.85;6.32;;;;;;;22.75;84.59;98800.53;5010967;28;20030;-77
2023/07/31 03:39:35;;;;;;;9.98;6.32;;;;;;;22.86;83.74;98801.09;5011333;28;20026;-78
2023/07/31 03:42:01;;;;;;;11.00;6.35;;;;;;;23.02;83.71;98786.13;5008111;28;20062;-78
2023/07/31 03:44:26;;;;;;;11.45;7.25;;;;;;;23.05;85.44;98798.72;5009232;28;20113;-79
2023/07/31 03:46:52;;;;;;;8.70;6.72;;;;;;;22.75;84.33;98807.00;5007360;28;20504;-78
2023/07/31 03:49:17;;;;;;;8.80;6.82;;;;;;;22.33;86.54;98800.78;5007698;28;20021;-79
2023/07/31 03:51:43;;;;;;;47.53;8.57;;;;;;;22.25;87.92;98800.91;4995974;28;20029;-74
2023/07/31 03:54:08;;;;;;;14.55;6.82;;;;;;;22.56;86.44;98811.41;5001200;28;20030;-76
2023/07/31 03:56:34;;;;;;;8.30;7.47;;;;;;;22.26;89.17;98801.69;5006784;28;20105;-77
2023/07/31 03:59:00;;;;;;;10.32;6.47;;;;;;;22.21;88.87;98797.31;5013966;28;20045;-77
2023/07/31 04:01:26;;;;;;;8.77;7.25;;;;;;;21.88;89.95;98803.47;5010923;28;20081;-77
2023/07/31 04:03:52;;;;;;;8.57;6.75;;;;;;;21.76;91.76;98817.50;4994381;28;20065;-77
2023/07/31 04:06:20;;;;;;;10.18;7.20;;;;;;;21.62;90.99;98813.59;5007335;28;20108;-77
2023/07/31 04:08:46;;;;;;;7.03;6.40;;;;;;;21.50;92.89;98817.78;5013473;28;20137;-77
2023/07/31 04:11:14;;;;;;;8.45;7.47;;;;;;;21.39;93.58;98829.31;5011139;28;20026;-77
2023/07/31 04:13:40;;;;;;;7.90;7.10;;;;;;;21.25;94.08;98824.59;5014693;28;20559;-77
2023/07/31 04:16:05;;;;;;;8.43;7.00;;;;;;;21.38;94.28;98827.69;5014686;28;20033;-77
2023/07/31 04:18:32;;;;;;;10.15;7.10;;;;;;;21.46;93.08;98836.94;5012305;28;20045;-77
2023/07/31 04:21:03;;;;;;;8.57;7.47;;;;;;;21.48;93.65;98827.97;5011186;28;20072;-77
2023/07/31 04:23:29;;;;;;;7.80;7.05;;;;;;;21.46;93.88;98836.94;5013943;28;20493;-77
2023/07/31 04:25:55;;;;;;;15.35;6.55;;;;;;;21.52;92.88;98834.44;5010968;28;20037;-77
2023/07/31 04:28:20;;;;;;;7.53;6.72;;;;;;;21.46;93.53;98839.78;4996170;28;20030;-77
2023/07/31 04:30:47;;;;;;;10.02;7.18;;;;;;;21.53;93.27;98834.00;4994019;28;20543;-77
2023/07/31 04:33:13;;;;;;;10.20;6.40;;;;;;;21.60;93.97;98835.97;4999336;28;20054;-77
2023/07/31 04:35:38;;;;;;;8.27;6.70;;;;;;;21.73;93.22;98825.66;5014740;28;20136;-77
2023/07/31 04:38:04;;;;;;;9.73;6.15;;;;;;;22.06;90.55;98835.75;5013738;28;20452;-77
2023/07/31 04:40:29;;;;;;;9.48;6.20;;;;;;;22.20;88.95;98841.25;5011046;28;20030;-78
2023/07/31 04:42:55;;;;;;;8.40;6.18;;;;;;;22.38;87.18;98843.03;5008990;28;20053;-77
2023/07/31 04:45:20;;;;;;;8.80;6.47;;;;;;;22.51;86.82;98846.91;5003178;28;20025;-80
2023/07/31 04:47:46;;;;;;;9.75;6.90;;;;;;;22.62;87.16;98843.06;5015334;28;20056;-78
2023/07/31 04:50:11;;;;;;;10.50;7.15;;;;;;;22.85;85.43;98848.78;5020854;28;20126;-79
2023/07/31 04:52:37;;;;;;;7.25;6.55;;;;;;;22.78;84.30;98848.88;5033244;28;20025;-80
2023/07/31 04:55:02;;;;;;;6.53;5.85;;;;;;;22.85;83.91;98851.63;5021173;28;20036;-74
2023/07/31 04:57:28;;;;;;;8.60;6.40;;;;;;;22.81;83.84;98847.22;5011730;28;20076;-82
2023/07/31 04:59:53;;;;;;;7.13;5.70;;;;;;;22.88;83.05;98841.41;5026352;28;20033;-82
2023/07/31 05:02:19;;;;;;;9.15;6.15;;;;;;;22.97;83.86;98843.69;5002796;28;20030;-82
2023/07/31 05:04:44;;;;;;;8.00;5.57;;;;;;;23.08;82.55;98841.44;5010931;28;20037;-82
2023/07/31 05:07:10;;;;;;;8.77;6.43;;;;;;;23.04;82.82;98829.28;4999451;28;20026;-82
2023/07/31 05:09:36;;;;;;;9.05;7.25;;;;;;;23.00;83.24;98839.94;5000504;28;20113;-82
2023/07/31 05:12:01;;;;;;;7.45;6.72;;;;;;;23.00;83.97;98837.91;5000562;28;20026;-82
2023/07/31 05:14:27;;;;;;;7.30;6.60;;;;;;;23.23;82.94;98841.97;5000144;28;20029;-82
2023/07/31 05:16:52;;;;;;;9.82;7.65;;;;;;;23.11;83.23;98840.56;4993231;28;20022;-82
2023/07/31 05:19:18;;;;;;;11.15;7.93;;;;;;;23.34;82.40;98846.66;4998474;28;20025;-82
2023/07/31 05:21:43;;;;;;;9.75;7.53;;;;;;;23.33;81.08;98837.31;5000869;28;20026;-82
2023/07/31 05:24:10;;;;;;;10.40;6.70;;;;;;;23.44;80.82;98839.16;5005018;28;20030;-82
2023/07/31 05:26:35;;;;;;;12.15;7.38;;;;;;;23.53;81.45;98850.78;5004203;28;20097;-82
2023/07/31 05:29:01;;;;;;;9.13;7.82;;;;;;;23.68;80.40;98834.16;4993682;28;20069;-81
2023/07/31 05:31:26;;;;;;;8.27;7.03;;;;;;;23.96;77.72;98837.66;5009656;28;20032;-82
2023/07/31 05:33:52;;;;;;;7.68;6.95;;;;;;;24.13;77.30;98837.69;5013417;28;20053;-82
2023/07/31 05:36:17;;;;;;;12.27;7.15;;;;;;;24.41;76.43;98836.22;5011257;28;20065;-82
2023/07/31 05:38:44;;;;;;;8.63;6.32;;;;;;;24.48;75.64;98838.88;5012403;28;20025;-82
2023/07/31 05:41:12;;;;;;;10.38;6.40;;;;;;;24.74;75.15;98835.41;5008262;28;20017;-82
2023/07/31 05:43:37;;;;;;;8.75;6.97;;;;;;;24.91;73.95;98837.00;4999965;28;20054;-83
2023/07/31 05:46:03;;;;;;;7.95;6.93;;;;;;;24.78;72.29;98847.56;5001027;28;20053;-83
2023/07/31 05:48:28;;;;;;;9.23;7.60;;;;;;;24.89;72.48;98838.72;5007414;28;20034;-82
2023/07/31 05:50:54;;;;;;;10.95;7.30;;;;;;;24.92;71.58;98824.34;5005187;28;20030;-82
2023/07/31 05:53:19;;;;;;;11.55;8.30;;;;;;;25.24;70.48;98834.06;5009112;28;20032;-79
2023/07/31 05:55:45;;;;;;;18.20;9.65;;;;;;;25.02;70.74;98845.31;5012821;28;20452;-79
2023/07/31 05:58:10;;;;;;;19.45;9.27;;;;;;;25.05;69.99;98844.41;5011427;28;20026;-78
2023/07/31 06:00:36;;;;;;;10.45;8.98;;;;;;;24.95;69.90;98851.22;5011666;28;20017;-84
2023/07/31 06:03:02;;;;;;;11.30;10.00;;;;;;;24.82;70.04;98848.31;4992178;28;20425;-86
2023/07/31 06:05:29;;;;;;;12.50;10.32;;;;;;;24.64;69.15;98848.72;5002869;28;20021;-86
2023/07/31 06:07:55;;;;;;;10.95;9.88;;;;;;;24.38;69.59;98840.75;5011350;28;20556;-81
2023/07/31 06:10:20;;;;;;;10.75;9.57;;;;;;;24.53;70.16;98851.84;5011475;28;20025;-82
2023/07/31 06:12:46;;;;;;;13.50;9.82;;;;;;;24.49;69.62;98851.91;5009219;28;20505;-83
2023/07/31 06:15:11;;;;;;;12.05;10.40;;;;;;;24.65;70.59;98856.06;5001502;28;20497;-79
2023/07/31 06:17:37;;;;;;;12.40;11.15;;;;;;;24.62;69.25;98851.22;5010972;28;20440;-80
2023/07/31 06:20:05;;;;;;;12.43;10.18;;;;;;;24.91;68.90;98850.53;5017398;28;20053;-82
2023/07/31 06:22:31;;;;;;;11.65;10.38;;;;;;;24.91;68.95;98851.31;5012308;28;20029;-80
2023/07/31 06:24:56;;;;;;;13.85;10.10;;;;;;;24.86;69.09;98849.00;5012374;28;20026;-79
2023/07/31 06:27:22;;;;;;;14.02;11.40;;;;;;;24.83;67.87;98854.81;5012188;28;20033;-82
2023/07/31 06:29:47;;;;;;;15.10;12.95;;;;;;;24.70;69.01;98863.28;5011744;28;20021;-79
2023/07/31 06:32:13;;;;;;;13.50;11.20;;;;;;;24.70;68.86;98851.84;5010828;28;20021;-79
2023/07/31 06:34:39;;;;;;;16.83;12.77;;;;;;;24.68;68.63;98844.53;5011456;28;20125;-80
2023/07/31 06:37:04;;;;;;;14.93;12.98;;;;;;;24.89;68.22;98838.72;5011001;28;20471;-81
2023/07/31 06:39:30;;;;;;;14.70;13.23;;;;;;;24.98;68.24;98847.47;5012189;28;20026;-78
2023/07/31 06:41:55;;;;;;;16.20;12.80;;;;;;;25.11;66.62;98858.19;5008285;28;20065;-80
2023/07/31 06:44:21;;;;;;;17.00;14.00;;;;;;;25.43;67.78;98840.13;5005196;28;20037;-81
2023/07/31 06:46:46;;;;;;;18.75;14.70;;;;;;;25.45;67.13;98851.09;5009189;28;20029;-81
2023/07/31 06:49:12;;;;;;;20.42;16.42;;;;;;;25.43;66.51;98845.03;5011221;28;20034;-80
2023/07/31 06:51:38;;;;;;;17.50;15.70;;;;;;;25.29;65.85;98840.53;5001207;28;20025;-76
2023/07/31 06:54:03;;;;;;;20.13;15.52;;;;;;;25.50;66.70;98850.56;5003087;28;20041;-77
2023/07/31 06:56:29;;;;;;;19.92;14.70;;;;;;;25.78;65.20;98856.72;5010698;28;20034;-76
2023/07/31 06:58:55;;;;;;;18.42;14.85;;;;;;;25.77;65.00;98852.25;5011373;28;20116;-77
2023/07/31 07:01:21;;;;;;;17.95;15.98;;;;;;;25.86;64.25;98855.25;5011664;28;20034;-77
2023/07/31 07:03:46;;;;;;;22.02;16.67;;;;;;;26.03;64.32;98835.09;5009985;28;20029;-79
2023/07/31 07:06:12;;;;;;;23.35;16.15;;;;;;;26.26;63.28;98847.50;5008079;28;20030;-77
2023/07/31 07:08:37;;;;;;;20.15;16.65;;;;;;;26.33;62.22;98850.94;5009979;28;20052;-79
2023/07/31 07:11:03;;;;;;;19.42;17.38;;;;;;;26.57;61.68;98846.94;5009468;28;20091;-74
2023/07/31 07:13:29;;;;;;;16.05;14.35;;;;;;;26.04;61.32;98843.25;5010856;28;20084;-71
2023/07/31 07:15:54;;;;;;;17.38;15.32;;;;;;;26.23;62.13;98846.34;5011699;28;20057;-74
2023/07/31 07:18:20;;;;;;;16.45;14.63;;;;;;;26.56;59.32;98848.19;5011445;28;20026;-75
2023/07/31 07:20:47;;;;;;;20.75;13.02;;;;;;;26.54;59.55;98850.69;5009388;28;20489;-76
2023/07/31 07:23:13;;;;;;;21.75;15.85;;;;;;;26.63;59.36;98847.94;5015044;28;20577;-74
2023/07/31 07:25:38;;;;;;;19.45;17.25;;;;;;;26.44;58.45;98852.66;5009837;28;20026;-80
2023/07/31 07:28:04;;;;;;;22.55;16.88;;;;;;;26.14;58.54;98863.44;5011297;28;20497;-77
2023/07/31 07:30:29;;;;;;;22.83;17.27;;;;;;;25.99;60.00;98854.47;5009766;28;20402;-80
2023/07/31 07:32:55;;;;;;;28.23;18.17;;;;;;;26.03;60.12;98858.84;5012726;28;20037;-79
2023/07/31 07:35:20;;;;;;;23.85;18.63;;;;;;;26.08;60.72;98860.31;5010782;28;20053;-73
2023/07/31 07:37:49;;;;;;;32.78;20.85;;;;;;;26.03;60.24;98852.28;5012203;28;20076;-74
2023/07/31 07:40:15;;;;;;;23.25;19.58;;;;;;;25.97;60.14;98863.50;5012469;28;20124;-75
2023/07/31 07:42:41;;;;;;;22.85;17.92;;;;;;;25.89;59.92;98851.47;5013270;28;20053;-76
2023/07/31 07:45:07;;;;;;;24.70;17.23;;;;;;;25.95;59.47;98856.66;5013212;28;20037;-76
2023/07/31 07:47:33;;;;;;;19.48;16.90;;;;;;;25.92;59.64;98855.50;5014067;28;20033;-78
2023/07/31 07:49:59;;;;;;;24.80;17.35;;;;;;;26.08;59.79;98848.88;5014238;28;20045;-74
2023/07/31 07:52:24;;;;;;;20.95;18.10;;;;;;;26.12;59.59;98848.72;5013350;28;20038;-77
2023/07/31 07:54:50;;;;;;;22.08;19.20;;;;;;;26.29;58.97;98855.19;5012582;28;20377;-79
2023/07/31 07:57:15;;;;;;;22.00;18.35;;;;;;;26.45;58.52;98854.28;5011193;28;20057;-75
2023/07/31 07:59:41;;;;;;;21.65;17.30;;;;;;;26.65;57.07;98848.28;5012448;28;20412;-79
2023/07/31 08:02:07;;;;;;;35.08;17.33;;;;;;;26.31;56.99;98861.28;5008532;28;21845;-76
2023/07/31 08:04:32;;;;;;;22.58;18.58;;;;;;;26.49;56.07;98855.75;5008686;28;20038;-79
2023/07/31 08:06:58;;;;;;;21.85;16.48;;;;;;;26.62;54.98;98843.47;5010401;28;20489;-76
2023/07/31 08:09:23;;;;;;;22.05;19.13;;;;;;;27.02;55.72;98842.16;5011645;28;20041;-75
2023/07/31 08:11:49;;;;;;;29.40;16.42;;;;;;;27.40;53.46;98826.06;5013117;28;20029;-76
2023/07/31 08:14:14;;;;;;;20.05;16.65;;;;;;;27.47;52.98;98834.38;5011190;28;20026;-76
2023/07/31 08:16:40;;;;;;;18.88;16.30;;;;;;;27.75;51.82;98844.03;5010542;28;20033;-76
2023/07/31 08:19:05;;;;;;;19.30;16.17;;;;;;;27.81;51.20;98829.84;5013158;28;20026;-74
2023/07/31 08:21:31;;;;;;;19.33;15.00;;;;;;;27.84;51.48;98831.78;5014170;28;20033;-76
2023/07/31 08:23:57;;;;;;;17.67;15.80;;;;;;;27.66;51.47;98841.09;5013729;28;20102;-76
2023/07/31 08:26:23;;;;;;;16.08;14.48;;;;;;;27.67;51.12;98836.94;5012098;28;20022;-76
2023/07/31 08:28:48;;;;;;;19.05;15.45;;;;;;;27.88;50.50;98832.47;5013289;28;20026;-77
2023/07/31 08:31:14;;;;;;;18.30;15.30;;;;;;;28.16;50.87;98838.34;5013506;28;20045;-77
2023/07/31 08:33:42;;;;;;;16.90;15.10;;;;;;;28.20;49.82;98832.47;5013894;28;20032;-76
2023/07/31 08:36:08;;;;;;;19.35;15.40;;;;;;;28.28;50.11;98827.25;5012412;28;20425;-76
2023/07/31 08:38:33;;;;;;;14.75;12.93;;;;;;;28.36;49.33;98822.81;5013958;28;20029;-78
2023/07/31 08:40:59;;;;;;;18.45;13.70;;;;;;;28.73;48.76;98831.53;5013179;28;20041;-78
2023/07/31 08:43:26;;;;;;;14.02;12.60;;;;;;;28.34;48.04;98830.28;5012031;28;20034;-77
2023/07/31 08:45:52;;;;;;;17.38;11.48;;;;;;;28.35;48.27;98838.44;5005974;28;20045;-77
2023/07/31 08:48:20;;;;;;;16.20;12.90;;;;;;;28.65;47.02;98833.09;5003782;28;20030;-77
2023/07/31 08:50:46;;;;;;;16.42;11.30;;;;;;;29.20;45.81;98837.38;5004396;28;20025;-77
2023/07/31 08:53:11;;;;;;;12.48;11.18;;;;;;;29.53;44.85;98822.31;4996576;28;20509;-77
2023/07/31 08:55:38;;;;;;;18.85;11.77;;;;;;;29.55;44.11;98828.38;4998807;28;20469;-76
2023/07/31 08:58:04;;;;;;;13.20;11.43;;;;;;;29.46;45.51;98828.44;5000165;28;20030;-77
2023/07/31 09:00:32;;;;;;;16.80;12.05;;;;;;;29.21;47.44;98824.56;5001080;28;20041;-76
2023/07/31 09:03:07;;;;;;;15.07;11.05;;;;;;;28.96;45.53;98823.59;4996005;28;20417;-75
2023/07/31 09:05:33;;;;;;;12.57;11.30;;;;;;;28.28;47.40;98830.13;5001512;28;20041;-77
2023/07/31 09:08:04;;;;;;;13.85;12.45;;;;;;;28.50;49.22;98820.59;5002168;28;20034;-77
2023/07/31 09:10:29;;;;;;;14.52;11.70;;;;;;;28.42;48.53;98812.28;4998289;28;20477;-76
2023/07/31 09:12:56;;;;;;;14.15;12.35;;;;;;;28.99;47.56;98819.75;5002694;28;20034;-77
2023/07/31 09:15:23;;;;;;;20.42;12.07;;;;;;;29.09;47.29;98814.03;5005104;28;20497;-77
2023/07/31 09:18:00;;;;;;;16.38;12.98;;;;;;;29.11;47.64;98818.00;4996967;28;20751;-76
2023/07/31 09:20:25;;;;;;;12.68;11.13;;;;;;;28.78;47.35;98818.59;4990936;28;20069;-73
2023/07/31 09:22:52;;;;;;;16.52;12.32;;;;;;;29.12;45.08;98810.97;4994701;28;20058;-76
2023/07/31 09:25:18;;;;;;;11.23;10.13;;;;;;;29.43;44.98;98814.97;5001974;28;20170;-75
2023/07/31 09:28:00;;;;;;;11.85;9.88;;;;;;;29.95;43.47;98808.47;5004487;28;20037;-78
2023/07/31 09:30:26;;;;;;;10.35;9.40;;;;;;;29.68;43.38;98805.19;5018330;28;20026;-75
2023/07/31 09:33:01;;;;;;;11.07;9.55;;;;;;;29.94;43.59;98807.66;5005826;28;20114;-76
2023/07/31 09:35:29;;;;;;;9.63;8.73;;;;;;;30.26;40.78;98801.63;5000944;28;20112;-74
2023/07/31 09:38:00;;;;;;;11.10;9.23;;;;;;;30.34;41.01;98799.19;5010400;28;20037;-78
2023/07/31 09:40:28;;;;;;;8.52;7.72;;;;;;;30.48;39.93;98795.59;5005196;28;20044;-78
2023/07/31 09:43:02;;;;;;;8.65;7.75;;;;;;;30.65;40.47;98798.09;5009509;28;20111;-78
2023/07/31 09:45:28;;;;;;;9.55;8.10;;;;;;;30.14;40.34;98802.66;5007948;28;20560;-77
2023/07/31 09:47:55;;;;;;;23.90;8.70;;;;;;;30.54;40.38;98784.97;5004135;28;20036;-78
2023/07/31 09:50:22;;;;;;;9.80;7.88;;;;;;;30.51;39.76;98779.38;5002312;28;20076;-74
2023/07/31 09:52:48;;;;;;;7.93;7.15;;;;;;;30.12;40.44;98788.75;5006187;28;20088;-75
2023/07/31 09:55:13;;;;;;;8.38;7.43;;;;;;;30.03;40.52;98778.00;5007764;28;20497;-78
2023/07/31 09:57:45;;;;;;;9.75;8.10;;;;;;;30.20;41.45;98789.97;5006667;28;20112;-75
2023/07/31 10:00:12;;;;;;;8.15;7.43;;;;;;;30.05;40.67;98784.13;5005517;28;20405;-75
2023/07/31 10:02:39;;;;;;;9.48;7.20;;;;;;;29.67;40.93;98776.84;5006324;28;20060;-77
2023/07/31 10:05:06;;;;;;;7.55;6.85;;;;;;;29.40;41.68;98782.16;5006449;28;20036;-78
2023/07/31 10:07:36;;;;;;;10.15;6.70;;;;;;;30.02;39.58;98781.38;5006654;28;20105;-78
2023/07/31 10:10:03;;;;;;;6.20;5.70;;;;;;;29.88;38.70;98777.09;5002984;28;20073;-78
2023/07/31 10:12:31;;;;;;;7.53;6.68;;;;;;;30.22;37.77;98781.63;5007337;28;20053;-77
2023/07/31 10:14:57;;;;;;;7.97;6.70;;;;;;;30.75;38.33;98753.47;5007286;28;20022;-77
2023/07/31 10:17:23;;;;;;;7.30;6.53;;;;;;;30.71;37.75;98761.50;5010914;28;20025;-78
2023/07/31 10:19:50;;;;;;;6.35;5.70;;;;;;;30.02;38.76;98767.75;5011599;28;20030;-78
2023/07/31 10:22:16;;;;;;;6.97;5.80;;;;;;;30.59;37.54;98760.44;5006698;28;20021;-78
2023/07/31 10:24:45;;;;;;;7.45;6.05;;;;;;;30.89;36.55;98757.69;5003265;28;20041;-77
2023/07/31 10:27:11;;;;;;;8.70;6.72;;;;;;;30.58;37.42;98750.19;5002136;28;20022;-79
2023/07/31 10:29:41;;;;;;;8.52;5.82;;;;;;;30.76;38.34;98762.91;5005340;28;20029;-79
2023/07/31 10:32:10;;;;;;;6.70;5.97;;;;;;;30.74;38.25;98757.63;5011342;28;20417;-79
2023/07/31 10:34:38;;;;;;;7.18;5.68;;;;;;;31.07;38.02;98741.50;4999457;28;20042;-75
2023/07/31 10:37:23;;;;;;;7.88;5.50;;;;;;;31.03;35.69;98744.56;5006978;28;20500;-78
2023/07/31 10:39:56;;;;;;;6.97;5.82;;;;;;;30.66;35.72;98739.91;5011466;28;20026;-79
2023/07/31 10:42:29;;;;;;;5.70;5.20;;;;;;;30.77;36.64;98730.69;5010903;28;20393;-78
2023/07/31 10:44:59;;;;;;;6.55;5.13;;;;;;;31.11;35.37;98736.31;5004051;28;20030;-77
2023/07/31 10:47:25;;;;;;;5.78;5.15;;;;;;;30.68;35.92;98728.66;5009230;28;20021;-77
2023/07/31 10:49:50;;;;;;;5.40;4.75;;;;;;;30.99;34.54;98726.66;5008566;28;20477;-77
2023/07/31 10:52:23;;;;;;;5.53;4.90;;;;;;;31.06;34.54;98714.69;5008693;28;20029;-77
2023/07/31 10:54:50;;;;;;;8.70;4.80;;;;;;;31.65;34.95;98713.13;5026133;28;20033;-77
2023/07/31 10:57:20;;;;;;;5.07;4.50;;;;;;;31.75;32.70;98710.94;5010163;28;20111;-77
2023/07/31 10:59:45;;;;;;;;;;;;;;;31.50;33.19;98716.06;5011236;28;20053;-77
2023/07/31 11:02:30;;;;;;;4.83;4.37;;;;;;;31.58;33.09;98712.75;5005940;28;20011;-76
2023/07/31 11:05:09;;;;;;;5.20;4.45;;;;;;;31.69;32.94;98712.16;5008380;28;20440;-77
2023/07/31 11:07:50;;;;;;;6.60;5.40;;;;;;;31.36;35.22;98699.50;5009197;28;20036;-77
2023/07/31 11:10:19;;;;;;;7.85;7.05;;;;;;;31.82;39.10;98711.84;5008591;28;20080;-78
2023/07/31 11:12:47;;;;;;;8.60;7.75;;;;;;;31.68;39.62;98716.31;5005397;28;20079;-78
2023/07/31 11:15:13;;;;;;;8.80;7.85;;;;;;;31.58;40.36;98712.75;5003725;28;20026;-79
2023/07/31 11:17:41;;;;;;;9.27;7.88;;;;;;;31.49;40.03;98723.09;5008994;28;20087;-79
2023/07/31 11:20:07;;;;;;;8.40;7.60;;;;;;;31.51;40.42;98723.44;5004290;28;20467;-79
2023/07/31 11:22:35;;;;;;;9.07;8.18;;;;;;;31.36;40.53;98716.84;5006513;28;20025;-79
2023/07/31 11:25:01;;;;;;;8.15;7.32;;;;;;;31.56;39.71;98713.28;5006780;28;20030;-78